Time;durP1;ratioP1;P1;durP2;ratioP2;P2;SDS_P1;SDS_P2;PMS_P1;PMS_P2;Temp;Humidity;BMP_temperature;BMP_pressure;BME280_temperature;BME280_humidity;BME280_pressure;Samples;Min_cycle;Max_cycle;Signal;HPM_P1;HPM_P2
2023/12/06 00:01:55;;;;;;;185.95;78.68;;;5.30;99.70;;;;;;5037341;28;20168;-53
2023/12/06 00:04:21;;;;;;;119.05;54.33;;;5.30;99.80;;;;;;5037401;28;20108;-53
2023/12/06 00:06:47;;;;;;;101.82;52.50;;;5.30;99.90;;;;;;5037251;28;20026;-53
2023/12/06 00:09:13;;;;;;;98.72;51.70;;;5.30;99.90;;;;;;5037324;28;20029;-53
2023/12/06 00:11:39;;;;;;;105.20;53.45;;;5.30;99.90;;;;;;5037116;28;20056;-53
2023/12/06 00:14:05;;;;;;;111.60;54.08;;;5.20;99.90;;;;;;5036871;28;20022;-54
2023/12/06 00:16:31;;;;;;;124.38;57.65;;;5.30;99.90;;;;;;5037207;28;20033;-53
2023/12/06 00:18:57;;;;;;;149.88;63.05;;;5.30;99.90;;;;;;5036963;28;20028;-53
2023/12/06 00:21:23;;;;;;;162.57;65.88;;;5.20;99.90;;;;;;5036982;28;20387;-54
2023/12/06 00:23:49;;;;;;;106.85;52.55;;;5.30;99.90;;;;;;5037066;28;20399;-53
2023/12/06 00:26:15;;;;;;;96.45;50.50;;;5.30;99.90;;;;;;5036476;28;20041;-54
2023/12/06 00:28:41;;;;;;;102.00;50.20;;;5.20;99.90;;;;;;5036945;28;20483;-53
2023/12/06 00:31:07;;;;;;;114.68;53.03;;;5.20;99.90;;;;;;5036941;28;20368;-54
2023/12/06 00:33:33;;;;;;;155.02;64.93;;;5.10;99.90;;;;;;5036764;28;20026;-53
2023/12/06 00:35:59;;;;;;;150.90;67.97;;;5.20;99.90;;;;;;5036534;28;20021;-54
2023/12/06 00:38:25;;;;;;;113.68;52.25;;;5.20;99.90;;;;;;5036722;28;20491;-53
2023/12/06 00:40:51;;;;;;;104.28;51.53;;;5.10;99.90;;;;;;5036773;28;20165;-53
2023/12/06 00:43:17;;;;;;;96.70;47.45;;;5.20;99.90;;;;;;5036613;28;20112;-53
2023/12/06 00:45:43;;;;;;;101.10;49.50;;;5.00;99.90;;;;;;5036446;28;20108;-53
2023/12/06 00:48:09;;;;;;;96.32;47.88;;;5.00;99.90;;;;;;5036641;28;20487;-53
2023/12/06 00:50:35;;;;;;;94.68;48.53;;;5.10;99.90;;;;;;5036211;28;20179;-53
2023/12/06 00:53:01;;;;;;;94.82;48.97;;;5.00;99.90;;;;;;5036296;28;20065;-53
2023/12/06 00:55:27;;;;;;;94.53;47.10;;;4.90;99.90;;;;;;5036368;28;20052;-53
2023/12/06 00:57:53;;;;;;;101.28;50.15;;;5.00;99.90;;;;;;5036090;28;20072;-53
2023/12/06 01:00:19;;;;;;;107.45;53.30;;;4.90;99.90;;;;;;5036404;28;20113;-53
2023/12/06 01:02:44;;;;;;;95.45;50.00;;;4.70;99.90;;;;;;5036435;28;20054;-53
2023/12/06 01:05:10;;;;;;;115.80;55.83;;;4.80;99.90;;;;;;5035828;28;20029;-53
2023/12/06 01:07:36;;;;;;;107.85;52.80;;;4.90;99.90;;;;;;5036177;28;20423;-53
2023/12/06 01:10:02;;;;;;;146.73;63.28;;;4.90;99.90;;;;;;5036169;28;20430;-53
2023/12/06 01:12:28;;;;;;;105.90;52.70;;;4.80;99.90;;;;;;5035953;28;20022;-53
2023/12/06 01:14:54;;;;;;;101.90;51.85;;;4.70;99.90;;;;;;5035988;28;20083;-53
2023/12/06 01:17:20;;;;;;;108.00;52.63;;;4.70;99.90;;;;;;5036002;28;20037;-53
2023/12/06 01:19:46;;;;;;;104.63;50.55;;;4.60;99.90;;;;;;5035772;28;20026;-53
2023/12/06 01:22:12;;;;;;;109.03;51.90;;;4.70;99.90;;;;;;5035839;28;20041;-53
2023/12/06 01:24:38;;;;;;;132.02;57.40;;;4.70;99.90;;;;;;5035960;28;20115;-53
2023/12/06 01:27:04;;;;;;;126.35;58.08;;;4.60;99.90;;;;;;5035912;28;20048;-53
2023/12/06 01:29:30;;;;;;;134.88;58.85;;;4.50;99.90;;;;;;5035870;28;20033;-53
2023/12/06 01:31:57;;;;;;;132.40;56.22;;;4.50;99.90;;;;;;5035715;28;20044;-53
2023/12/06 01:34:22;;;;;;;117.75;54.58;;;4.50;99.90;;;;;;5035516;28;20096;-53
2023/12/06 01:36:48;;;;;;;117.97;55.00;;;4.50;99.90;;;;;;5035638;28;20462;-53
2023/12/06 01:39:14;;;;;;;125.65;59.00;;;4.60;99.90;;;;;;5035666;28;20471;-53
2023/12/06 01:41:40;;;;;;;143.75;62.70;;;4.50;99.90;;;;;;5035275;28;20037;-53
2023/12/06 01:44:07;;;;;;;125.32;58.03;;;4.50;99.90;;;;;;5035708;28;20029;-53
2023/12/06 01:46:33;;;;;;;132.20;59.58;;;4.50;99.90;;;;;;5035402;28;20041;-54
2023/12/06 01:49:01;;;;;;;116.28;56.35;;;4.50;99.90;;;;;;5035345;28;20037;-53
2023/12/06 01:51:27;;;;;;;117.35;55.70;;;4.50;99.90;;;;;;5035537;28;20092;-53
2023/12/06 01:53:53;;;;;;;115.93;52.65;;;4.40;99.90;;;;;;5035246;28;20040;-54
2023/12/06 01:56:21;;;;;;;104.70;53.53;;;4.50;99.90;;;;;;5035109;28;20379;-53
2023/12/06 01:58:47;;;;;;;111.38;54.50;;;4.40;99.90;;;;;;5035419;28;20028;-54
2023/12/06 02:01:14;;;;;;;114.38;55.70;;;4.20;99.90;;;;;;5035469;28;20049;-53
2023/12/06 02:03:40;;;;;;;118.20;55.65;;;4.20;99.90;;;;;;5035129;28;20426;-54
2023/12/06 02:06:07;;;;;;;112.72;55.15;;;4.20;99.90;;;;;;5035284;28;20136;-53
2023/12/06 02:08:35;;;;;;;122.80;58.20;;;4.20;99.90;;;;;;5035149;28;20049;-53
2023/12/06 02:11:01;;;;;;;119.20;58.88;;;4.20;99.90;;;;;;5035321;28;20068;-53
2023/12/06 02:13:28;;;;;;;117.85;55.35;;;4.00;99.90;;;;;;5035269;28;20033;-53
2023/12/06 02:15:54;;;;;;;117.03;55.42;;;3.90;99.90;;;;;;5035172;28;20044;-53
2023/12/06 02:18:22;;;;;;;119.18;56.17;;;3.90;99.90;;;;;;5038189;28;20041;-54
2023/12/06 02:20:48;;;;;;;118.20;58.13;;;3.90;99.90;;;;;;5039423;28;20459;-53
2023/12/06 02:23:15;;;;;;;114.40;56.60;;;3.90;99.90;;;;;;5039189;28;20033;-54
2023/12/06 02:25:42;;;;;;;120.43;56.15;;;3.90;99.90;;;;;;5038839;28;20427;-53
2023/12/06 02:28:08;;;;;;;107.53;54.53;;;3.80;99.90;;;;;;5037341;28;20037;-53
2023/12/06 02:30:34;;;;;;;124.65;58.78;;;3.90;99.90;;;;;;5038711;28;20076;-53
2023/12/06 02:33:00;;;;;;;116.97;55.97;;;3.90;99.90;;;;;;5039146;28;20025;-53
2023/12/06 02:35:30;;;;;;;103.80;53.05;;;3.80;99.90;;;;;;5038941;28;20463;-53
2023/12/06 02:37:58;;;;;;;106.20;54.05;;;3.80;99.90;;;;;;5038041;28;20026;-54
2023/12/06 02:40:27;;;;;;;110.78;55.92;;;3.70;99.90;;;;;;5038327;28;20050;-54
2023/12/06 02:42:53;;;;;;;105.88;52.90;;;3.70;99.90;;;;;;5039002;28;20021;-53
2023/12/06 02:45:19;;;;;;;112.60;54.55;;;3.60;99.90;;;;;;5039017;28;20163;-53
2023/12/06 02:47:45;;;;;;;109.82;55.80;;;3.50;99.90;;;;;;5038496;28;20029;-53
2023/12/06 02:50:11;;;;;;;116.97;55.92;;;3.60;99.90;;;;;;5038591;28;20029;-53
2023/12/06 02:52:37;;;;;;;112.03;56.20;;;3.60;99.90;;;;;;5038743;28;20041;-53
2023/12/06 02:55:04;;;;;;;111.03;55.60;;;3.70;99.90;;;;;;5038267;28;20124;-53
2023/12/06 02:57:29;;;;;;;112.55;54.60;;;3.70;99.90;;;;;;5038526;28;20038;-53
2023/12/06 02:59:55;;;;;;;104.68;53.47;;;3.70;99.90;;;;;;5038532;28;20030;-53
2023/12/06 03:02:21;;;;;;;105.60;52.15;;;3.80;99.90;;;;;;5038409;28;20033;-53
2023/12/06 03:04:47;;;;;;;105.80;51.17;;;3.80;99.90;;;;;;5038378;28;20091;-53
2023/12/06 03:07:13;;;;;;;106.50;50.92;;;3.90;99.90;;;;;;5038282;28;20503;-54
2023/12/06 03:09:39;;;;;;;105.80;50.65;;;3.80;99.90;;;;;;5038212;28;20091;-53
2023/12/06 03:12:07;;;;;;;105.88;53.13;;;3.80;99.90;;;;;;5038498;28;20029;-53
2023/12/06 03:14:33;;;;;;;105.60;52.13;;;3.70;99.90;;;;;;5038247;28;20420;-53
2023/12/06 03:16:59;;;;;;;106.95;51.55;;;3.70;99.90;;;;;;5038165;28;20017;-53
2023/12/06 03:19:25;;;;;;;108.07;52.50;;;3.70;99.90;;;;;;5038307;28;20040;-53
2023/12/06 03:21:50;;;;;;;108.70;52.83;;;3.70;99.90;;;;;;5038040;28;20087;-53
2023/12/06 03:24:16;;;;;;;110.05;52.00;;;3.70;99.90;;;;;;5037995;28;20120;-53
2023/12/06 03:26:42;;;;;;;108.65;51.33;;;3.80;99.90;;;;;;5037986;28;20034;-53
2023/12/06 03:29:08;;;;;;;105.82;49.40;;;3.70;99.90;;;;;;5036788;28;20122;-53
2023/12/06 03:31:34;;;;;;;108.60;51.15;;;3.70;99.90;;;;;;5037811;28;20079;-54
2023/12/06 03:34:00;;;;;;;112.78;52.03;;;3.80;99.90;;;;;;5037902;28;20029;-53
2023/12/06 03:36:25;;;;;;;104.97;51.90;;;3.70;99.90;;;;;;5037820;28;20494;-53
2023/12/06 03:38:51;;;;;;;104.00;50.15;;;3.80;99.90;;;;;;5037416;28;20140;-53
2023/12/06 03:41:19;;;;;;;105.03;50.35;;;3.70;99.90;;;;;;5037867;28;20037;-53
2023/12/06 03:43:45;;;;;;;105.57;48.95;;;3.70;99.90;;;;;;5038075;28;20037;-53
2023/12/06 03:46:11;;;;;;;103.78;49.72;;;3.70;99.90;;;;;;5037437;28;20075;-53
2023/12/06 03:48:37;;;;;;;108.53;51.45;;;3.70;99.90;;;;;;5037729;28;20089;-53
2023/12/06 03:51:03;;;;;;;104.43;49.38;;;3.70;99.90;;;;;;5037742;28;20033;-54
2023/12/06 03:53:29;;;;;;;109.55;50.50;;;3.60;99.90;;;;;;5037352;28;20025;-53
2023/12/06 03:55:55;;;;;;;108.40;48.55;;;3.50;99.90;;;;;;5037597;28;20368;-53
2023/12/06 03:58:22;;;;;;;110.80;50.88;;;3.50;99.90;;;;;;5037580;28;20060;-53
2023/12/06 04:00:48;;;;;;;103.80;50.00;;;3.40;99.90;;;;;;5037268;28;20109;-53
2023/12/06 04:03:14;;;;;;;103.95;50.38;;;3.50;99.90;;;;;;5037461;28;20080;-53
2023/12/06 04:05:43;;;;;;;96.97;47.85;;;3.50;99.90;;;;;;5052744;28;20037;-53
2023/12/06 04:08:10;;;;;;;101.25;47.60;;;3.60;99.90;;;;;;5037201;28;20032;-53
2023/12/06 04:10:37;;;;;;;99.50;48.55;;;3.50;99.90;;;;;;5037050;28;20041;-53
2023/12/06 04:13:04;;;;;;;98.65;46.95;;;3.50;99.90;;;;;;5037385;28;20140;-53
2023/12/06 04:15:30;;;;;;;99.32;47.30;;;3.50;99.90;;;;;;5037084;28;20468;-53
2023/12/06 04:17:56;;;;;;;93.55;46.88;;;3.20;99.90;;;;;;5037033;28;20028;-53
2023/12/06 04:20:23;;;;;;;100.97;45.90;;;3.30;99.90;;;;;;5037253;28;20037;-53
2023/12/06 04:22:49;;;;;;;100.32;45.75;;;3.20;99.90;;;;;;5037145;28;20386;-53
2023/12/06 04:25:15;;;;;;;96.75;46.30;;;3.30;99.90;;;;;;5036674;28;20044;-53
2023/12/06 04:27:42;;;;;;;92.95;45.00;;;3.20;99.90;;;;;;5037079;28;20033;-53
2023/12/06 04:30:10;;;;;;;107.60;47.90;;;3.20;99.90;;;;;;5036824;28;20029;-53
2023/12/06 04:32:36;;;;;;;101.47;46.53;;;3.20;99.90;;;;;;5036841;28;20026;-53
2023/12/06 04:35:03;;;;;;;101.72;46.97;;;3.20;99.90;;;;;;5036811;28;20037;-53
2023/12/06 04:37:29;;;;;;;104.55;47.35;;;3.30;99.90;;;;;;5036501;28;20483;-53
2023/12/06 04:39:55;;;;;;;102.88;47.25;;;3.30;99.90;;;;;;5036139;28;20037;-53
2023/12/06 04:42:20;;;;;;;131.00;56.88;;;3.30;99.90;;;;;;5036727;28;20614;-53
2023/12/06 04:44:46;;;;;;;195.25;79.13;;;3.40;99.90;;;;;;5036550;28;20036;-53
2023/12/06 04:47:12;;;;;;;130.52;58.25;;;3.30;99.90;;;;;;5036247;28;20049;-53
2023/12/06 04:49:38;;;;;;;125.60;57.97;;;3.20;99.90;;;;;;5036567;28;20029;-53
2023/12/06 04:52:04;;;;;;;115.55;53.58;;;3.20;99.90;;;;;;5036391;28;20045;-53
2023/12/06 04:54:31;;;;;;;124.63;56.83;;;3.20;99.90;;;;;;5035003;28;20047;-53
2023/12/06 04:56:57;;;;;;;130.90;59.03;;;3.20;99.90;;;;;;5036381;28;20093;-53
2023/12/06 04:59:24;;;;;;;122.85;55.97;;;3.20;99.90;;;;;;5036282;28;20419;-53
2023/12/06 05:01:50;;;;;;;116.18;54.35;;;3.10;99.90;;;;;;5036105;28;20029;-53
2023/12/06 05:04:16;;;;;;;106.25;49.45;;;3.10;99.90;;;;;;5036149;28;20038;-53
2023/12/06 05:06:42;;;;;;;111.60;51.53;;;3.00;99.90;;;;;;5036196;28;20045;-53
2023/12/06 05:09:08;;;;;;;106.15;48.78;;;3.00;99.90;;;;;;5035900;28;20033;-53
2023/12/06 05:11:34;;;;;;;102.70;50.03;;;3.00;99.90;;;;;;5036246;28;20068;-53
2023/12/06 05:14:00;;;;;;;97.63;47.75;;;3.10;99.90;;;;;;5035919;28;20456;-53
2023/12/06 05:16:26;;;;;;;104.82;48.47;;;3.10;99.90;;;;;;5035733;28;20056;-53
2023/12/06 05:18:52;;;;;;;96.78;46.03;;;3.20;99.90;;;;;;5035957;28;20121;-53
2023/12/06 05:21:17;;;;;;;87.30;43.65;;;3.20;99.90;;;;;;5035941;28;20033;-53
2023/12/06 05:23:43;;;;;;;99.72;45.30;;;3.20;99.90;;;;;;5035765;28;20025;-54
2023/12/06 05:26:09;;;;;;;84.03;41.67;;;3.30;99.90;;;;;;5035628;28;20064;-53
2023/12/06 05:28:35;;;;;;;79.97;38.33;;;3.30;99.90;;;;;;5035880;28;20029;-53
2023/12/06 05:31:01;;;;;;;74.85;36.85;;;3.10;99.90;;;;;;5035602;28;20068;-53
2023/12/06 05:33:30;;;;;;;77.80;40.00;;;3.10;99.90;;;;;;5035719;28;20078;-53
2023/12/06 05:35:55;;;;;;;81.93;38.60;;;3.20;99.90;;;;;;5035630;28;20021;-53
2023/12/06 05:38:22;;;;;;;73.85;36.70;;;3.20;99.90;;;;;;5035292;28;20090;-54
2023/12/06 05:40:48;;;;;;;71.57;34.88;;;3.10;99.90;;;;;;5035569;28;20086;-53
2023/12/06 05:43:14;;;;;;;62.00;32.30;;;3.00;99.90;;;;;;5035538;28;20024;-53
2023/12/06 05:45:40;;;;;;;69.45;33.75;;;2.90;99.90;;;;;;5035173;28;20029;-53
2023/12/06 05:48:07;;;;;;;60.80;31.90;;;2.80;99.90;;;;;;5035396;28;20076;-53
2023/12/06 05:50:32;;;;;;;65.13;31.90;;;2.90;99.90;;;;;;5035362;28;20064;-53
2023/12/06 05:52:58;;;;;;;63.95;30.33;;;2.80;99.90;;;;;;5034596;28;20497;-53
2023/12/06 05:55:24;;;;;;;64.97;32.55;;;2.70;99.90;;;;;;5035528;28;20064;-53
2023/12/06 05:57:50;;;;;;;63.55;30.10;;;2.70;99.90;;;;;;5035176;28;20041;-53
2023/12/06 06:00:17;;;;;;;65.80;31.98;;;2.60;99.90;;;;;;5035217;28;20108;-53
2023/12/06 06:02:43;;;;;;;72.85;33.67;;;2.50;99.90;;;;;;5035295;28;20036;-53
2023/12/06 06:05:13;;;;;;;67.97;34.17;;;2.40;99.90;;;;;;5035307;28;20033;-53
2023/12/06 06:07:39;;;;;;;65.18;34.05;;;2.40;99.90;;;;;;5035002;28;20028;-53
2023/12/06 06:10:07;;;;;;;79.10;34.00;;;2.30;99.90;;;;;;5034995;28;20041;-53
2023/12/06 06:12:33;;;;;;;67.30;31.50;;;2.30;99.90;;;;;;5035257;28;20033;-53
2023/12/06 06:14:59;;;;;;;77.22;35.38;;;2.10;99.90;;;;;;5034250;28;20026;-53
2023/12/06 06:17:26;;;;;;;68.25;32.47;;;2.10;99.90;;;;;;5034043;28;20029;-53
2023/12/06 06:19:52;;;;;;;58.47;29.73;;;2.00;99.90;;;;;;5034601;28;20057;-53
2023/12/06 06:22:18;;;;;;;51.28;28.05;;;2.00;99.90;;;;;;5034231;28;20080;-53
2023/12/06 06:24:44;;;;;;;53.97;28.40;;;2.00;99.90;;;;;;5033269;28;20391;-54
2023/12/06 06:27:10;;;;;;;57.35;28.38;;;2.00;99.90;;;;;;5033317;28;20029;-53
2023/12/06 06:29:37;;;;;;;70.13;32.95;;;2.00;99.90;;;;;;5034713;28;20033;-53
2023/12/06 06:32:03;;;;;;;71.15;35.25;;;2.10;99.90;;;;;;5035327;28;20045;-53
2023/12/06 06:34:29;;;;;;;94.85;44.13;;;2.00;99.90;;;;;;5034817;28;20025;-53
2023/12/06 06:36:55;;;;;;;209.18;95.10;;;2.00;99.90;;;;;;5034413;28;20371;-53
2023/12/06 06:39:21;;;;;;;270.80;119.30;;;2.10;99.90;;;;;;5035093;28;20029;-53
2023/12/06 06:41:47;;;;;;;151.90;68.22;;;2.20;99.90;;;;;;5034750;28;20335;-53
2023/12/06 06:44:13;;;;;;;80.15;41.78;;;2.10;99.90;;;;;;5034758;28;20181;-53
2023/12/06 06:46:39;;;;;;;74.20;38.80;;;2.00;99.90;;;;;;5033472;28;20026;-53
2023/12/06 06:49:04;;;;;;;75.70;40.63;;;1.90;99.90;;;;;;5034664;28;20406;-53
2023/12/06 06:51:32;;;;;;;68.28;37.88;;;1.90;99.90;;;;;;5034698;28;20053;-53
2023/12/06 06:53:58;;;;;;;72.43;39.63;;;2.00;99.90;;;;;;5030605;28;20526;-53
2023/12/06 07:11:36;;;;;;;61.70;32.05;;;2.00;99.90;;;;;;5036272;28;20056;-53
2023/12/06 07:14:03;;;;;;;57.97;31.20;;;2.00;99.90;;;;;;5036972;28;20045;-53
2023/12/06 07:16:29;;;;;;;54.10;28.10;;;1.90;99.90;;;;;;5038022;28;20033;-53
2023/12/06 07:18:55;;;;;;;52.80;29.08;;;1.90;99.90;;;;;;5038289;28;20026;-53
2023/12/06 07:21:20;;;;;;;55.30;27.38;;;1.90;99.90;;;;;;5037512;28;20084;-53
2023/12/06 07:23:48;;;;;;;49.10;26.13;;;1.80;99.90;;;;;;5031395;28;20091;-53
2023/12/06 07:26:14;;;;;;;50.58;24.02;;;1.90;99.90;;;;;;5020051;28;20038;-53
2023/12/06 07:28:40;;;;;;;44.50;23.67;;;1.90;99.90;;;;;;5029100;28;20047;-53
2023/12/06 07:31:06;;;;;;;45.72;24.73;;;2.00;99.90;;;;;;5016968;28;20038;-53
2023/12/06 07:33:32;;;;;;;47.47;22.85;;;1.90;99.90;;;;;;5016700;28;20034;-53
2023/12/06 07:35:58;;;;;;;46.85;23.25;;;2.00;99.90;;;;;;5025754;28;20033;-53
2023/12/06 07:38:25;;;;;;;46.58;21.83;;;1.90;99.90;;;;;;5035281;28;20036;-53
2023/12/06 07:40:51;;;;;;;43.42;23.00;;;1.90;99.90;;;;;;5036145;28;20103;-53
2023/12/06 07:43:17;;;;;;;43.33;23.75;;;2.00;99.90;;;;;;5034313;28;20029;-53
2023/12/06 07:45:43;;;;;;;47.63;26.73;;;2.10;99.90;;;;;;5034406;28;20029;-53
2023/12/06 07:48:08;;;;;;;46.42;26.50;;;2.20;99.90;;;;;;5029521;28;20030;-53
2023/12/06 07:50:34;;;;;;;47.20;27.25;;;2.20;99.90;;;;;;5036890;28;20036;-53
2023/12/06 07:53:00;;;;;;;42.75;25.50;;;2.10;99.90;;;;;;5036356;28;20037;-53
2023/12/06 07:55:27;;;;;;;40.78;23.80;;;2.20;99.90;;;;;;5037347;28;20105;-53
2023/12/06 07:57:53;;;;;;;50.22;28.27;;;2.20;99.90;;;;;;5037053;28;20053;-53
2023/12/06 08:00:20;;;;;;;50.50;26.48;;;2.30;99.90;;;;;;5035212;28;20056;-53
2023/12/06 08:02:45;;;;;;;49.13;26.55;;;2.30;99.90;;;;;;5034912;28;20497;-53
2023/12/06 08:05:12;;;;;;;46.22;24.90;;;2.20;99.90;;;;;;5036836;28;20104;-53
2023/12/06 08:07:39;;;;;;;55.15;29.02;;;2.20;99.90;;;;;;5037051;28;20075;-53
2023/12/06 08:10:10;;;;;;;46.88;24.42;;;2.20;99.90;;;;;;5037658;28;20052;-53
2023/12/06 08:12:37;;;;;;;43.00;26.23;;;2.20;99.90;;;;;;5037433;28;20492;-53
2023/12/06 08:15:07;;;;;;;46.75;27.48;;;2.20;99.90;;;;;;5036711;28;20033;-53
2023/12/06 08:17:33;;;;;;;50.60;28.03;;;2.30;99.90;;;;;;5036990;28;20033;-54
2023/12/06 08:20:00;;;;;;;84.07;46.50;;;2.40;99.90;;;;;;5021988;28;20025;-53
2023/12/06 08:22:27;;;;;;;68.35;37.33;;;2.40;99.90;;;;;;5036981;28;20053;-53
2023/12/06 08:24:57;;;;;;;89.07;45.75;;;2.30;99.90;;;;;;5035999;28;20029;-53
2023/12/06 08:27:28;;;;;;;93.50;49.80;;;2.30;99.90;;;;;;5036589;28;20120;-53
2023/12/06 08:29:57;;;;;;;;;;;2.30;99.90;;;;;;5036970;28;20301;-53
2023/12/06 08:32:24;;;;;;;141.45;62.63;;;2.40;99.90;;;;;;5036862;28;19909;-53
2023/12/06 08:34:50;;;;;;;118.50;56.60;;;2.50;99.90;;;;;;5035386;28;20030;-53
2023/12/06 08:37:17;;;;;;;123.57;54.45;;;2.50;99.90;;;;;;5027664;28;20065;-53
2023/12/06 08:39:43;;;;;;;119.85;52.45;;;2.50;99.90;;;;;;5023914;28;20032;-53
2023/12/06 08:42:09;;;;;;;124.10;52.22;;;2.50;99.90;;;;;;5036184;28;20071;-53
2023/12/06 08:44:35;;;;;;;124.88;52.63;;;2.40;99.90;;;;;;5036485;28;20462;-53
2023/12/06 08:47:02;;;;;;;133.55;53.55;;;2.50;99.90;;;;;;5036401;28;20072;-53
2023/12/06 08:49:28;;;;;;;135.60;57.08;;;2.40;99.90;;;;;;5036028;28;20782;-53
2023/12/06 08:51:55;;;;;;;157.02;59.92;;;2.60;99.90;;;;;;5035026;28;20029;-53
2023/12/06 08:54:21;;;;;;;179.50;66.80;;;2.70;99.90;;;;;;5036118;28;20092;-53
2023/12/06 08:56:46;;;;;;;180.55;67.15;;;2.70;99.90;;;;;;5036173;28;20479;-53
2023/12/06 08:59:12;;;;;;;202.70;75.38;;;2.80;99.90;;;;;;5035676;28;20030;-53
2023/12/06 09:01:38;;;;;;;195.25;72.25;;;2.70;99.90;;;;;;5036176;28;20033;-53
2023/12/06 09:04:04;;;;;;;187.70;72.07;;;2.80;99.90;;;;;;5036152;28;20034;-53
2023/12/06 09:06:30;;;;;;;203.02;79.68;;;2.90;99.90;;;;;;5035847;28;20064;-53
2023/12/06 09:08:56;;;;;;;195.90;73.20;;;2.70;99.90;;;;;;5036390;28;20029;-53
2023/12/06 09:11:23;;;;;;;185.20;69.22;;;2.60;99.90;;;;;;5035797;28;20025;-53
2023/12/06 09:13:49;;;;;;;188.73;71.88;;;2.60;99.90;;;;;;5035697;28;20045;-53
2023/12/06 09:16:15;;;;;;;193.30;69.20;;;2.60;99.90;;;;;;5035704;28;20084;-53
2023/12/06 09:18:41;;;;;;;172.50;66.45;;;2.80;99.90;;;;;;5035968;28;20082;-53
2023/12/06 09:21:07;;;;;;;173.68;66.95;;;2.70;99.90;;;;;;5035722;28;20105;-53
2023/12/06 09:23:33;;;;;;;174.98;64.80;;;2.60;99.90;;;;;;5029421;28;20057;-53
2023/12/06 09:26:00;;;;;;;165.43;60.92;;;2.60;99.90;;;;;;5029300;28;20033;-53
2023/12/06 09:28:26;;;;;;;181.45;66.28;;;2.70;99.90;;;;;;5034356;28;20402;-53
2023/12/06 09:30:52;;;;;;;179.95;70.70;;;2.80;99.90;;;;;;5027132;28;20022;-53
2023/12/06 09:33:19;;;;;;;181.32;76.78;;;2.80;99.90;;;;;;5035153;28;20084;-53
2023/12/06 09:35:45;;;;;;;149.88;64.00;;;3.00;99.90;;;;;;5034239;28;20040;-53
2023/12/06 09:38:12;;;;;;;115.05;51.03;;;2.90;99.90;;;;;;5034870;28;20029;-53
2023/12/06 09:40:38;;;;;;;124.47;56.13;;;3.00;99.90;;;;;;5035748;28;20100;-53
2023/12/06 09:43:04;;;;;;;101.32;47.75;;;2.90;99.90;;;;;;5035454;28;20120;-54
2023/12/06 09:45:30;;;;;;;105.32;50.30;;;2.90;99.90;;;;;;5034051;28;20037;-53
2023/12/06 09:47:57;;;;;;;97.13;46.45;;;2.80;99.90;;;;;;5028241;28;20391;-53
2023/12/06 09:50:27;;;;;;;91.85;42.92;;;2.80;99.90;;;;;;5032974;28;20100;-54
2023/12/06 09:52:55;;;;;;;90.90;41.37;;;2.90;99.90;;;;;;5032070;28;20048;-54
2023/12/06 09:55:23;;;;;;;72.93;38.38;;;2.90;99.90;;;;;;5016509;28;20291;-53
2023/12/06 09:57:56;;;;;;;76.30;35.85;;;2.80;99.90;;;;;;5035189;28;20024;-53
2023/12/06 10:00:22;;;;;;;70.60;35.58;;;2.90;99.90;;;;;;5033429;28;20108;-53
2023/12/06 10:02:57;;;;;;;70.40;33.80;;;2.90;99.90;;;;;;5035273;28;20029;-53
2023/12/06 10:05:23;;;;;;;71.88;34.92;;;2.90;99.90;;;;;;5035004;28;20121;-54
2023/12/06 10:07:49;;;;;;;56.28;28.77;;;2.90;99.90;;;;;;5034754;28;20051;-53
2023/12/06 10:10:16;;;;;;;104.25;39.35;;;2.80;99.90;;;;;;5034686;28;20030;-53
2023/12/06 10:12:46;;;;;;;85.38;34.95;;;2.70;99.90;;;;;;5027135;28;20024;-53
2023/12/06 10:15:13;;;;;;;62.88;26.85;;;2.70;99.90;;;;;;5032104;28;20037;-54
2023/12/06 10:17:39;;;;;;;51.72;21.80;;;2.70;99.90;;;;;;5034996;28;20032;-53
2023/12/06 10:20:06;;;;;;;57.63;23.48;;;2.60;99.90;;;;;;5034613;28;20260;-53
2023/12/06 10:22:34;;;;;;;51.05;23.30;;;2.60;99.90;;;;;;5035039;28;20033;-53
2023/12/06 10:25:00;;;;;;;46.00;21.17;;;2.50;99.90;;;;;;5033442;28;20029;-54
2023/12/06 10:27:32;;;;;;;45.08;21.30;;;2.70;99.90;;;;;;5034982;28;20046;-53
2023/12/06 10:30:01;;;;;;;54.10;23.25;;;2.70;99.90;;;;;;5035404;28;20026;-53
2023/12/06 10:32:29;;;;;;;57.83;23.65;;;2.80;99.90;;;;;;5035249;28;20630;-53
2023/12/06 10:34:58;;;;;;;67.93;28.20;;;2.60;99.90;;;;;;5035017;28;20057;-53
2023/12/06 10:37:26;;;;;;;81.05;29.77;;;2.70;99.90;;;;;;5034895;28;20030;-53
2023/12/06 10:39:58;;;;;;;80.45;29.00;;;2.60;99.90;;;;;;5037516;28;20175;-54
2023/12/06 10:42:30;;;;;;;63.17;24.90;;;2.50;99.90;;;;;;5038517;28;20132;-53
2023/12/06 10:44:59;;;;;;;66.78;24.35;;;2.60;99.90;;;;;;5035041;28;20033;-53
2023/12/06 10:47:26;;;;;;;79.80;29.23;;;2.70;99.90;;;;;;5029561;28;20036;-54
2023/12/06 10:49:54;;;;;;;59.08;23.77;;;2.80;99.90;;;;;;5035815;28;20036;-54
2023/12/06 10:52:21;;;;;;;35.45;17.80;;;2.80;99.90;;;;;;5033617;28;20045;-53
2023/12/06 10:54:47;;;;;;;51.28;26.92;;;2.70;99.90;;;;;;5038600;28;20029;-53
2023/12/06 10:57:14;;;;;;;74.63;25.67;;;2.70;99.90;;;;;;5038173;28;20052;-54
2023/12/06 10:59:43;;;;;;;55.95;22.83;;;2.60;99.90;;;;;;5038216;28;20044;-53
2023/12/06 11:02:12;;;;;;;56.38;24.75;;;2.40;99.90;;;;;;5038291;28;20029;-53
2023/12/06 11:04:47;;;;;;;51.65;22.70;;;2.60;99.90;;;;;;5035859;28;20099;-53
2023/12/06 11:07:23;;;;;;;55.05;24.73;;;2.70;99.90;;;;;;5038033;28;20454;-53
2023/12/06 11:10:03;;;;;;;80.97;32.85;;;2.80;99.90;;;;;;5038193;28;20513;-53
2023/12/06 11:13:04;;;;;;;85.90;34.45;;;2.70;99.90;;;;;;5036519;28;20499;-53
2023/12/06 11:16:07;;;;;;;97.18;38.13;;;2.70;99.90;;;;;;5026967;28;20411;-53
2023/12/06 11:18:51;;;;;;;73.28;28.75;;;2.80;99.90;;;;;;5018176;28;20033;-53
2023/12/06 11:21:22;;;;;;;52.15;25.90;;;2.80;99.90;;;;;;5018306;28;20256;-54
2023/12/06 11:23:48;;;;;;;75.68;32.30;;;2.80;99.90;;;;;;5024594;28;20045;-53
2023/12/06 11:26:14;;;;;;;42.08;24.73;;;2.80;99.90;;;;;;5037780;28;20038;-54
2023/12/06 11:28:42;;;;;;;45.58;25.48;;;2.90;99.90;;;;;;5039651;28;20032;-53
2023/12/06 11:31:11;;;;;;;49.88;26.13;;;2.90;99.90;;;;;;5036899;28;20034;-53
2023/12/06 11:33:37;;;;;;;40.80;22.07;;;2.90;99.90;;;;;;5037492;28;20511;-53
2023/12/06 11:36:04;;;;;;;37.67;21.80;;;2.80;99.90;;;;;;5038211;28;20064;-53
2023/12/06 11:38:34;;;;;;;49.40;28.17;;;2.80;99.90;;;;;;5038256;28;20025;-54
2023/12/06 11:41:04;;;;;;;47.88;27.60;;;2.70;99.90;;;;;;5036602;28;20063;-53
2023/12/06 11:43:34;;;;;;;34.90;20.20;;;2.80;99.90;;;;;;5037687;28;20468;-54
2023/12/06 11:46:01;;;;;;;;;;;2.80;99.90;;;;;;5038620;28;20021;-54
2023/12/06 11:48:27;;;;;;;39.30;18.40;;;2.80;99.90;;;;;;5037764;28;20326;-53
2023/12/06 11:50:58;;;;;;;31.92;17.60;;;2.90;99.90;;;;;;5036227;28;20032;-53
2023/12/06 11:53:26;;;;;;;;;;;2.90;99.90;;;;;;5038268;28;20075;-53
2023/12/06 11:55:53;;;;;;;30.48;17.73;;;2.80;99.90;;;;;;5036802;28;19916;-54
2023/12/06 11:58:20;;;;;;;33.65;19.48;;;2.70;99.90;;;;;;5036917;28;20396;-54
2023/12/06 12:00:49;;;;;;;34.95;21.42;;;2.60;99.90;;;;;;5036762;28;20029;-53
2023/12/06 12:03:15;;;;;;;32.95;20.17;;;2.70;99.90;;;;;;5037602;28;20037;-53
2023/12/06 12:05:42;;;;;;;34.40;21.58;;;2.70;99.90;;;;;;5037434;28;20038;-53
2023/12/06 12:08:10;;;;;;;39.97;23.08;;;2.80;99.90;;;;;;5037635;28;20029;-54
2023/12/06 12:10:37;;;;;;;43.25;23.85;;;2.90;99.90;;;;;;5037279;28;20032;-53
2023/12/06 12:13:03;;;;;;;51.55;24.98;;;2.90;99.90;;;;;;5036381;28;20457;-53
2023/12/06 12:15:30;;;;;;;43.38;24.63;;;2.90;99.90;;;;;;5036696;28;20037;-54
2023/12/06 12:17:56;;;;;;;39.80;24.17;;;2.90;99.90;;;;;;5036080;28;20033;-53
2023/12/06 12:20:22;;;;;;;39.17;23.20;;;2.90;99.90;;;;;;5036772;28;20029;-53
2023/12/06 12:22:50;;;;;;;46.38;25.58;;;2.90;99.90;;;;;;5036188;28;20087;-53
2023/12/06 12:25:18;;;;;;;40.45;26.58;;;2.90;99.90;;;;;;5036158;28;20482;-53
2023/12/06 12:27:45;;;;;;;54.15;27.80;;;3.00;99.90;;;;;;5036828;28;20025;-53
2023/12/06 12:30:15;;;;;;;47.85;28.48;;;2.90;99.90;;;;;;5036825;28;20101;-53
2023/12/06 12:32:51;;;;;;;63.00;29.55;;;3.00;99.90;;;;;;5035057;28;20041;-53
2023/12/06 12:35:17;;;;;;;63.67;30.20;;;2.90;99.90;;;;;;5036169;28;20025;-54
2023/12/06 12:37:44;;;;;;;59.72;29.90;;;3.10;99.90;;;;;;5036370;28;20078;-54
2023/12/06 12:40:10;;;;;;;55.03;31.00;;;3.10;99.90;;;;;;5036230;28;20033;-53
2023/12/06 12:42:40;;;;;;;53.08;29.58;;;3.10;99.90;;;;;;5036225;28;20467;-54
2023/12/06 12:45:14;;;;;;;55.38;29.77;;;3.00;99.90;;;;;;5036607;28;20049;-53
2023/12/06 12:47:40;;;;;;;57.03;30.15;;;3.10;99.90;;;;;;5036366;28;20065;-53